Time;durP1;ratioP1;P1;durP2;ratioP2;P2;SDS_P1;SDS_P2;PMS_P1;PMS_P2;Temp;Humidity;BMP_temperature;BMP_pressure;BME280_temperature;BME280_humidity;BME280_pressure;Samples;Min_cycle;Max_cycle;Signal;HPM_P1;HPM_P2
2023/03/30 00:00:13;;;;;;;3.15;2.70;;;;;;;2.39;71.89;100539.60;1665455;85;21234;-56
2023/03/30 00:03:05;;;;;;;4.58;2.98;;;;;;;2.38;71.90;100537.38;1665452;85;21266;-55
2023/03/30 00:06:14;;;;;;;5.50;2.70;;;;;;;2.36;71.81;100531.23;1665010;85;21227;-55
2023/03/30 00:09:21;;;;;;;4.72;2.98;;;;;;;2.34;71.84;100537.74;1665092;85;21199;-56
2023/03/30 00:12:28;;;;;;;5.65;2.90;;;;;;;2.35;71.85;100535.41;1660100;84;21282;-57
2023/03/30 00:15:34;;;;;;;4.67;2.80;;;;;;;2.34;71.79;100538.61;1688089;84;21247;-55
2023/03/30 00:18:39;;;;;;;4.03;2.77;;;;;;;2.32;71.78;100543.27;1665195;85;21227;-56
2023/03/30 00:21:46;;;;;;;3.65;2.72;;;;;;;2.33;71.82;100543.62;1665118;85;21212;-56
2023/03/30 00:24:54;;;;;;;5.10;2.80;;;;;;;2.32;71.75;100555.91;1665080;85;21252;-56
2023/03/30 00:28:01;;;;;;;3.10;2.70;;;;;;;2.28;71.75;100544.98;1664970;85;21222;-56
2023/03/30 00:31:09;;;;;;;4.45;2.67;;;;;;;2.26;71.72;100550.98;1666280;85;21212;-55
2023/03/30 00:34:15;;;;;;;4.12;3.10;;;;;;;2.26;71.79;100544.23;1669293;81;21219;-55
2023/03/30 00:37:22;;;;;;;3.70;2.75;;;;;;;2.26;71.79;100539.70;1667514;84;21251;-56
2023/03/30 00:40:28;;;;;;;6.00;3.20;;;;;;;2.23;71.72;100530.97;1671902;84;21226;-56
2023/03/30 00:43:34;;;;;;;5.00;2.95;;;;;;;2.20;71.73;100537.97;1667071;85;21189;-55
2023/03/30 00:46:41;;;;;;;5.03;2.85;;;;;;;2.17;71.75;100545.80;1671909;84;21275;-57
2023/03/30 00:49:50;;;;;;;5.17;3.27;;;;;;;2.15;71.74;100531.58;1675304;85;21254;-58
2023/03/30 00:53:00;;;;;;;3.62;3.00;;;;;;;2.15;71.76;100532.92;1655138;85;21246;-56
2023/03/30 00:56:07;;;;;;;3.62;2.80;;;;;;;2.13;71.72;100531.30;1661470;85;21235;-56
2023/03/30 00:59:15;;;;;;;3.47;2.60;;;;;;;2.11;71.73;100530.59;1672055;86;21585;-57
2023/03/30 01:02:22;;;;;;;3.00;2.40;;;;;;;2.09;71.75;100525.79;1676465;84;21259;-56
2023/03/30 01:05:37;;;;;;;3.47;2.70;;;;;;;2.10;71.82;100528.37;1671945;84;21211;-56
2023/03/30 01:08:43;;;;;;;3.00;2.47;;;;;;;2.11;71.81;100521.14;1667078;86;21342;-57
2023/03/30 01:11:51;;;;;;;3.50;2.45;;;;;;;2.09;71.78;100523.09;1672022;84;21230;-55
2023/03/30 01:14:57;;;;;;;3.45;2.45;;;;;;;2.08;71.79;100539.77;1676473;85;21299;-56
2023/03/30 01:18:11;;;;;;;4.17;2.80;;;;;;;2.08;71.78;100532.18;1666970;86;21255;-57
2023/03/30 01:21:38;;;;;;;4.47;2.87;;;;;;;2.07;71.81;100539.89;1672046;84;21222;-57
2023/03/30 01:25:11;;;;;;;3.42;2.67;;;;;;;2.07;71.83;100541.23;1667016;85;21345;-55
2023/03/30 01:28:49;;;;;;;4.08;2.83;;;;;;;2.07;71.83;100544.80;1672030;86;21202;-57
2023/03/30 01:32:25;;;;;;;3.58;2.72;;;;;;;2.08;71.85;100551.92;1667202;85;21184;-57
2023/03/30 01:36:16;;;;;;;5.12;2.85;;;;;;;2.09;71.83;100559.54;1673491;83;21219;-57
2023/03/30 01:39:32;;;;;;;3.25;2.70;;;;;;;2.03;71.80;100562.72;1667043;85;21357;-57
2023/03/30 01:42:49;;;;;;;3.47;2.80;;;;;;;2.00;71.80;100554.85;1672020;84;21227;-57
2023/03/30 01:46:15;;;;;;;4.83;2.42;;;;;;;1.99;71.84;100563.91;1671011;84;21285;-56
2023/03/30 01:50:05;;;;;;;3.52;3.05;;;;;;;1.99;71.85;100566.13;1666986;85;21223;-56
2023/03/30 01:53:25;;;;;;;3.05;2.72;;;;;;;1.97;71.83;100573.95;1672076;84;21211;-56
2023/03/30 01:56:56;;;;;;;3.83;2.75;;;;;;;1.97;71.87;100573.95;1666999;84;21238;-55
2023/03/30 02:00:12;;;;;;;4.17;3.12;;;;;;;1.98;71.87;100578.39;1672060;86;21215;-56
2023/03/30 02:03:21;;;;;;;4.45;2.72;;;;;;;1.99;71.86;100580.98;1670740;85;21384;-56
2023/03/30 02:06:45;;;;;;;3.33;2.45;;;;;;;1.97;71.81;100580.70;1657850;85;21235;-56
2023/03/30 02:09:53;;;;;;;3.67;2.60;;;;;;;1.98;71.85;100585.14;1647886;86;21228;-56
2023/03/30 02:12:59;;;;;;;4.25;2.85;;;;;;;1.97;71.85;100585.63;1657824;86;21215;-56
2023/03/30 02:16:10;;;;;;;3.72;2.72;;;;;;;1.97;71.85;100584.27;1647741;85;21200;-56
2023/03/30 02:19:16;;;;;;;3.52;2.52;;;;;;;1.99;71.87;100594.95;1658949;86;21262;-56
2023/03/30 02:22:23;;;;;;;4.22;3.15;;;;;;;2.02;71.88;100605.52;1672070;84;21230;-57
2023/03/30 02:25:29;;;;;;;5.33;2.80;;;;;;;2.03;71.87;100615.36;1667000;84;21353;-56
2023/03/30 02:28:36;;;;;;;3.90;2.62;;;;;;;2.04;71.86;100626.52;1672085;85;21255;-56
2023/03/30 02:31:43;;;;;;;3.27;2.37;;;;;;;2.01;71.80;100630.32;1667089;84;21238;-56
2023/03/30 02:35:14;;;;;;;4.97;2.92;;;;;;;2.00;71.80;100639.38;1651927;86;21294;-56
2023/03/30 02:38:33;;;;;;;5.62;2.22;;;;;;;2.02;71.82;100632.03;1665186;86;21207;-55
2023/03/30 02:41:50;;;;;;;3.02;2.40;;;;;;;2.04;71.85;100640.88;1648024;86;21223;-57
2023/03/30 02:45:04;;;;;;;3.17;2.72;;;;;;;2.06;71.86;100635.37;1627656;88;21750;-57
2023/03/30 02:48:33;;;;;;;3.45;2.70;;;;;;;2.05;71.82;100628.23;1639353;87;21343;-57
2023/03/30 02:51:52;;;;;;;3.17;2.30;;;;;;;2.06;71.82;100629.97;1613249;87;21268;-56
2023/03/30 02:55:05;;;;;;;3.33;2.42;;;;;;;2.05;71.78;100624.17;1636522;87;21561;-56
2023/03/30 02:58:26;;;;;;;3.70;2.67;;;;;;;2.04;71.76;100618.42;1639455;87;21366;-56
2023/03/30 03:01:49;;;;;;;4.97;2.67;;;;;;;2.01;71.76;100626.27;1639380;86;21432;-56
2023/03/30 03:04:55;;;;;;;3.33;2.55;;;;;;;1.99;71.74;100632.74;1639421;87;21304;-55
2023/03/30 03:08:03;;;;;;;3.92;2.77;;;;;;;2.01;71.81;100641.59;1637674;87;21220;-56
2023/03/30 03:11:03;;;;;;;3.30;2.60;;;;;;;2.04;71.83;100635.48;1615596;86;21255;-56
2023/03/30 03:14:10;;;;;;;3.72;2.70;;;;;;;2.03;71.75;100638.30;1639429;87;21216;-56
2023/03/30 03:17:20;;;;;;;3.22;2.45;;;;;;;2.03;71.78;100636.44;1639432;87;21232;-55
2023/03/30 03:20:29;;;;;;;4.17;2.62;;;;;;;2.05;71.79;100641.72;1639127;86;21243;-55
2023/03/30 03:23:35;;;;;;;5.78;3.15;;;;;;;2.06;71.79;100640.77;1638925;87;21279;-57
2023/03/30 03:26:44;;;;;;;4.40;3.05;;;;;;;2.07;71.82;100635.73;1639015;86;21235;-55
2023/03/30 03:29:55;;;;;;;4.25;3.15;;;;;;;2.11;71.85;100627.78;1638962;87;21748;-55
2023/03/30 03:33:05;;;;;;;4.30;2.80;;;;;;;2.11;71.77;100629.97;1639034;87;21228;-55
2023/03/30 03:36:16;;;;;;;4.47;3.25;;;;;;;2.10;71.70;100626.05;1639314;86;21423;-55
2023/03/30 03:39:25;;;;;;;5.62;3.62;;;;;;;2.06;71.65;100628.62;1608900;87;21239;-56
2023/03/30 03:42:33;;;;;;;4.62;3.67;;;;;;;2.05;71.62;100626.87;1623039;87;21299;-55
2023/03/30 03:45:40;;;;;;;4.65;3.20;;;;;;;2.04;71.59;100637.31;1643843;86;21231;-55
2023/03/30 03:48:46;;;;;;;6.05;2.90;;;;;;;1.98;71.56;100635.95;1643779;87;21231;-56
2023/03/30 03:51:54;;;;;;;4.80;3.30;;;;;;;1.96;71.57;100637.03;1643884;86;21227;-56
2023/03/30 03:55:04;;;;;;;9.18;4.72;;;;;;;1.93;71.54;100630.52;1643751;87;21358;-55
2023/03/30 03:58:12;;;;;;;13.93;7.08;;;;;;;1.91;71.56;100629.76;1643820;87;21208;-55
2023/03/30 04:01:19;;;;;;;4.70;3.27;;;;;;;1.90;71.58;100628.05;1643718;86;21252;-56
2023/03/30 04:04:25;;;;;;;7.90;3.33;;;;;;;1.89;71.59;100625.83;1643794;87;21320;-54
2023/03/30 04:07:33;;;;;;;4.90;3.10;;;;;;;1.89;71.59;100631.73;1643763;86;21283;-54
2023/03/30 04:10:38;;;;;;;4.17;2.98;;;;;;;1.85;71.55;100616.73;1643512;86;21441;-55
2023/03/30 04:13:50;;;;;;;4.70;3.35;;;;;;;1.81;71.55;100622.84;1666765;86;21252;-55
2023/03/30 04:17:02;;;;;;;;;;;;;;;1.79;71.54;100617.20;1633010;86;21252;-54
2023/03/30 04:20:26;;;;;;;;;;;;;;;1.77;71.52;100630.80;1673006;84;20267;-54
2023/03/30 04:23:34;;;;;;;4.85;2.85;;;;;;;1.72;71.57;100610.05;1669909;86;20228;-54
2023/03/30 04:27:00;;;;;;;5.30;3.42;;;;;;;1.72;71.65;100601.95;1670709;84;21212;-56
2023/03/30 04:30:07;;;;;;;4.33;3.15;;;;;;;1.75;71.71;100604.89;1635895;87;21225;-56
2023/03/30 04:33:17;;;;;;;5.15;3.50;;;;;;;1.74;71.66;100611.28;1634715;87;21247;-55
2023/03/30 04:36:31;;;;;;;4.97;3.33;;;;;;;1.69;71.60;100600.83;1630117;86;21224;-55
2023/03/30 04:39:40;;;;;;;5.50;3.50;;;;;;;1.66;71.56;100601.54;1663932;82;21806;-55
2023/03/30 04:43:05;;;;;;;4.65;3.37;;;;;;;1.59;71.50;100591.69;1606939;86;21241;-55
2023/03/30 04:46:20;;;;;;;5.67;3.27;;;;;;;1.57;71.52;100592.80;1656558;86;21264;-56
2023/03/30 04:49:27;;;;;;;4.58;3.33;;;;;;;1.54;71.54;100604.17;1695202;84;21198;-55
2023/03/30 04:52:34;;;;;;;4.65;3.60;;;;;;;1.51;71.49;100598.14;1665362;84;21227;-56
2023/03/30 04:55:41;;;;;;;4.85;3.22;;;;;;;1.52;71.57;100609.33;1692809;84;21267;-56
2023/03/30 04:58:50;;;;;;;4.37;3.02;;;;;;;1.53;71.61;100605.16;1673100;84;21239;-55
2023/03/30 05:02:00;;;;;;;21.00;10.30;;;;;;;1.56;71.65;100593.27;1689172;84;21215;-55
2023/03/30 05:05:18;;;;;;;26.97;12.90;;;;;;;1.55;71.59;100604.54;1675241;83;21799;-55
2023/03/30 05:08:33;;;;;;;9.30;5.78;;;;;;;1.57;71.62;100604.94;1658336;84;21282;-57
2023/03/30 05:11:42;;;;;;;5.87;3.67;;;;;;;1.63;71.69;100601.77;1693384;83;21274;-56
2023/03/30 05:15:07;;;;;;;10.53;7.85;;;;;;;1.62;71.57;100594.67;1671906;84;21205;-56
2023/03/30 05:18:31;;;;;;;6.10;4.47;;;;;;;1.61;71.54;100593.80;1664916;86;21262;-56
2023/03/30 05:21:39;;;;;;;6.65;4.28;;;;;;;1.63;71.54;100597.73;1661914;84;21283;-58
2023/03/30 05:24:55;;;;;;;4.97;3.72;;;;;;;1.68;71.63;100602.30;1663054;85;21581;-57
2023/03/30 05:28:07;;;;;;;5.87;4.10;;;;;;;1.76;71.62;100612.03;1666114;85;21597;-57
2023/03/30 05:31:16;;;;;;;4.15;3.17;;;;;;;1.84;71.67;100615.86;1663923;84;21235;-56
2023/03/30 05:34:33;;;;;;;5.30;4.28;;;;;;;1.93;71.67;100625.12;1657370;86;21210;-56
2023/03/30 05:37:53;;;;;;;6.40;4.80;;;;;;;2.00;71.59;100621.83;1683352;83;21183;-57
2023/03/30 05:41:09;;;;;;;4.95;3.92;;;;;;;2.05;71.53;100634.97;1685851;83;21447;-56
2023/03/30 05:44:33;;;;;;;7.22;4.05;;;;;;;2.12;71.50;100636.25;1689337;83;21280;-57
2023/03/30 05:48:00;;;;;;;5.53;3.62;;;;;;;2.16;71.45;100640.42;1693582;83;21175;-56
2023/03/30 05:51:08;;;;;;;7.30;5.35;;;;;;;2.19;71.39;100638.36;1682511;83;21524;-56
2023/03/30 05:54:25;;;;;;;10.03;6.67;;;;;;;2.24;71.37;100636.17;1691264;84;21223;-56
2023/03/30 05:57:34;;;;;;;11.43;7.97;;;;;;;2.26;71.23;100635.58;1690796;83;21236;-56
2023/03/30 06:00:43;;;;;;;15.38;11.45;;;;;;;2.29;71.20;100619.61;1656169;83;21219;-57
2023/03/30 06:03:51;;;;;;;6.15;4.25;;;;;;;2.35;71.17;100612.38;1665179;84;21733;-56
2023/03/30 06:06:59;;;;;;;5.17;3.60;;;;;;;2.34;71.06;100610.67;1693092;84;21589;-57
2023/03/30 06:10:06;;;;;;;5.65;4.67;;;;;;;2.33;70.97;100614.36;1693372;83;21226;-57
2023/03/30 06:13:14;;;;;;;3.83;3.42;;;;;;;2.29;70.89;100616.91;1693401;84;21753;-57
2023/03/30 06:16:21;;;;;;;4.87;3.95;;;;;;;2.29;70.92;100623.66;1694211;84;21361;-58
2023/03/30 06:19:30;;;;;;;3.67;2.85;;;;;;;2.26;70.93;100608.56;1694065;84;21586;-57
2023/03/30 06:22:37;;;;;;;7.78;5.90;;;;;;;2.25;70.88;100626.24;1693167;83;21744;-56
2023/03/30 06:25:51;;;;;;;8.55;7.72;;;;;;;2.26;70.91;100622.55;1693809;83;21708;-58
2023/03/30 06:28:56;;;;;;;3.90;3.37;;;;;;;2.30;70.94;100630.80;1693869;84;21729;-56
2023/03/30 06:32:03;;;;;;;4.65;2.75;;;;;;;2.30;70.90;100638.91;1690898;83;21255;-58
2023/03/30 06:35:12;;;;;;;4.12;3.20;;;;;;;2.31;70.90;100642.84;1690820;83;21238;-57
2023/03/30 06:38:17;;;;;;;4.90;3.42;;;;;;;2.32;70.85;100635.09;1676990;84;21224;-57
2023/03/30 06:41:25;;;;;;;3.60;2.90;;;;;;;2.32;70.79;100624.77;1693383;82;21768;-56
2023/03/30 06:44:34;;;;;;;5.47;3.87;;;;;;;2.32;70.78;100626.13;1711270;83;21216;-56
2023/03/30 06:47:43;;;;;;;5.92;3.35;;;;;;;2.34;70.79;100629.09;1726552;83;21247;-58
2023/03/30 06:50:53;;;;;;;3.80;2.92;;;;;;;2.41;70.85;100626.79;1699631;83;21413;-56
2023/03/30 06:53:59;;;;;;;4.60;3.45;;;;;;;2.47;70.85;100631.71;1658053;86;21237;-58
2023/03/30 06:57:07;;;;;;;6.00;3.85;;;;;;;2.53;70.88;100632.10;1693153;83;21417;-58
2023/03/30 07:00:14;;;;;;;5.83;5.15;;;;;;;2.57;70.81;100627.33;1651271;87;21225;-56
2023/03/30 07:03:40;;;;;;;11.20;10.13;;;;;;;2.61;70.75;100629.67;1682656;83;21200;-56
2023/03/30 07:06:49;;;;;;;7.35;5.37;;;;;;;2.63;70.70;100635.79;1725857;82;21239;-57
2023/03/30 07:09:56;;;;;;;5.90;4.42;;;;;;;2.73;70.86;100635.45;1725482;83;21259;-57
2023/03/30 07:13:02;;;;;;;4.55;3.42;;;;;;;2.83;70.81;100636.94;1721504;82;21275;-56
2023/03/30 07:16:13;;;;;;;4.70;3.67;;;;;;;2.86;70.65;100636.70;1674632;85;21251;-57
2023/03/30 07:19:21;;;;;;;4.67;3.30;;;;;;;2.86;70.54;100644.33;1692504;83;21215;-58
2023/03/30 07:22:27;;;;;;;4.60;3.72;;;;;;;2.87;70.44;100650.60;1653152;87;21260;-56
2023/03/30 07:25:33;;;;;;;5.83;3.30;;;;;;;2.91;70.45;100635.84;1661903;85;21284;-56
2023/03/30 07:28:47;;;;;;;10.75;6.45;;;;;;;3.03;70.53;100653.31;1701579;84;21314;-57
2023/03/30 07:31:55;;;;;;;4.45;3.40;;;;;;;2.98;70.23;100656.03;1649783;85;21830;-56
2023/03/30 07:35:03;;;;;;;5.60;3.45;;;;;;;2.91;70.17;100646.66;1692154;85;21341;-57
2023/03/30 07:38:10;;;;;;;8.03;4.55;;;;;;;2.86;70.06;100640.75;1651148;87;21272;-57
2023/03/30 07:41:18;;;;;;;4.47;2.92;;;;;;;2.81;70.06;100643.83;1633723;84;21291;-56
2023/03/30 07:44:30;;;;;;;7.65;4.17;;;;;;;2.82;70.14;100641.48;1627171;88;21383;-57
2023/03/30 07:47:36;;;;;;;8.08;4.42;;;;;;;2.86;70.21;100635.34;1658243;86;21385;-58
2023/03/30 07:50:43;;;;;;;7.92;4.55;;;;;;;2.99;70.36;100644.22;1670397;84;21284;-56
2023/03/30 07:53:54;;;;;;;15.60;8.45;;;;;;;3.09;70.36;100636.59;1693627;83;21208;-57
2023/03/30 07:57:10;;;;;;;5.50;3.90;;;;;;;3.19;70.28;100648.05;1694173;83;21279;-56
2023/03/30 08:00:16;;;;;;;6.85;4.30;;;;;;;3.25;70.29;100645.68;1637819;86;21396;-57
2023/03/30 08:03:37;;;;;;;7.53;5.75;;;;;;;3.29;70.23;100640.89;1562711;90;21907;-56
2023/03/30 08:06:43;;;;;;;6.08;4.92;;;;;;;3.30;70.06;100646.17;1662730;85;21231;-57
2023/03/30 08:09:49;;;;;;;6.37;4.47;;;;;;;3.24;69.87;100645.80;1665398;85;21713;-56
2023/03/30 08:12:55;;;;;;;6.10;4.25;;;;;;;3.19;69.75;100644.83;1654112;84;21233;-56
2023/03/30 08:16:02;;;;;;;6.85;3.98;;;;;;;3.16;69.72;100638.80;1692027;83;21224;-56
2023/03/30 08:19:08;;;;;;;4.15;3.20;;;;;;;3.17;69.82;100636.00;1684840;84;21524;-57
2023/03/30 08:22:13;;;;;;;8.50;4.12;;;;;;;3.27;70.00;100639.66;1627292;87;21261;-56
2023/03/30 08:25:18;;;;;;;7.47;4.53;;;;;;;3.33;69.92;100635.11;1627061;88;21299;-58
2023/03/30 08:28:24;;;;;;;5.72;3.77;;;;;;;3.35;69.87;100640.39;1626940;88;21280;-58
2023/03/30 08:31:31;;;;;;;6.80;4.08;;;;;;;3.40;69.80;100647.65;1627476;88;21261;-59
2023/03/30 08:34:38;;;;;;;5.85;3.67;;;;;;;3.38;69.68;100645.06;1627661;88;21298;-59
2023/03/30 08:37:45;;;;;;;7.45;4.50;;;;;;;3.34;69.61;100644.97;1639181;86;21253;-57
2023/03/30 08:40:56;;;;;;;4.35;3.25;;;;;;;3.36;69.63;100648.41;1654124;85;21225;-58
2023/03/30 08:44:36;;;;;;;4.30;3.33;;;;;;;3.32;69.54;100644.70;1691717;83;21830;-58
2023/03/30 08:47:52;;;;;;;3.62;3.00;;;;;;;3.33;69.65;100641.88;1697258;84;21190;-59
2023/03/30 08:51:10;;;;;;;4.90;2.77;;;;;;;3.43;69.70;100645.56;1732503;81;21757;-59
2023/03/30 08:54:24;;;;;;;6.62;4.50;;;;;;;3.53;69.73;100647.03;1722824;83;21816;-57
2023/03/30 08:57:40;;;;;;;8.28;4.40;;;;;;;3.61;69.70;100640.50;1723125;82;21907;-59
2023/03/30 09:01:33;;;;;;;4.83;3.60;;;;;;;3.64;69.54;100631.64;1716055;82;21574;-59
2023/03/30 09:05:24;;;;;;;6.33;3.83;;;;;;;3.63;69.50;100642.08;1692967;84;21215;-59
2023/03/30 09:08:31;;;;;;;21.20;8.78;;;;;;;3.65;69.38;100640.12;1710384;83;21305;-57
2023/03/30 09:11:41;;;;;;;10.10;6.50;;;;;;;3.51;69.18;100633.63;1718921;82;21828;-56
2023/03/30 09:14:53;;;;;;;8.90;4.22;;;;;;;3.45;69.22;100625.14;1700008;84;21363;-55
2023/03/30 09:18:11;;;;;;;5.92;3.72;;;;;;;3.49;69.35;100631.53;1732900;82;21274;-56
2023/03/30 09:21:18;;;;;;;6.85;3.20;;;;;;;3.47;69.33;100622.70;1722397;82;21726;-56
2023/03/30 09:24:28;;;;;;;7.35;3.60;;;;;;;3.53;69.41;100626.25;1699345;84;21209;-55
2023/03/30 09:28:01;;;;;;;5.17;3.55;;;;;;;3.55;69.33;100629.67;1721921;82;21287;-56
2023/03/30 09:31:17;;;;;;;6.12;3.37;;;;;;;3.49;69.16;100622.06;1703763;82;21220;-55
2023/03/30 09:34:32;;;;;;;6.87;3.45;;;;;;;3.44;69.15;100620.73;1679222;84;21825;-56
2023/03/30 09:37:39;;;;;;;9.00;4.40;;;;;;;3.38;69.04;100619.37;1720381;83;21626;-56
2023/03/30 09:41:09;;;;;;;6.78;3.87;;;;;;;3.39;69.12;100610.28;1708060;83;21809;-56
2023/03/30 09:44:31;;;;;;;8.23;5.08;;;;;;;3.43;69.19;100611.74;1668895;83;21607;-56
2023/03/30 09:47:43;;;;;;;7.00;3.80;;;;;;;3.51;69.28;100599.80;1680953;84;21240;-56
2023/03/30 09:50:52;;;;;;;6.87;4.70;;;;;;;3.57;69.23;100602.51;1667519;84;21215;-56
2023/03/30 09:54:07;;;;;;;7.40;4.78;;;;;;;3.60;69.23;100593.62;1646873;86;21774;-56
2023/03/30 09:57:34;;;;;;;7.87;4.15;;;;;;;3.63;69.23;100596.59;1655178;85;21190;-55
2023/03/30 10:00:40;;;;;;;11.68;4.92;;;;;;;3.65;69.09;100594.59;1656341;86;21273;-55
2023/03/30 10:03:48;;;;;;;6.12;4.65;;;;;;;3.74;69.20;100610.09;1629071;86;21196;-55
2023/03/30 10:06:56;;;;;;;4.83;3.22;;;;;;;3.76;69.07;100604.90;1627851;86;21209;-55
2023/03/30 10:10:06;;;;;;;6.75;3.87;;;;;;;3.74;68.95;100604.67;1653473;86;21798;-55
2023/03/30 10:13:20;;;;;;;6.00;4.00;;;;;;;3.78;68.99;100601.58;1637403;86;21237;-55
2023/03/30 10:16:35;;;;;;;8.90;5.62;;;;;;;3.85;68.96;100596.52;1651604;85;21772;-56
2023/03/30 10:19:42;;;;;;;9.08;4.10;;;;;;;3.92;69.05;100595.87;1653114;86;21389;-62
2023/03/30 10:23:00;;;;;;;6.90;3.45;;;;;;;3.97;69.01;100607.66;1688034;85;21212;-61
2023/03/30 10:26:12;;;;;;;4.10;3.17;;;;;;;3.93;68.87;100602.99;1644389;85;22118;-60
2023/03/30 10:29:21;;;;;;;7.75;3.47;;;;;;;3.91;68.76;100600.06;1688410;85;21294;-60
2023/03/30 10:32:31;;;;;;;5.75;3.85;;;;;;;3.87;68.71;100598.09;1628443;86;21640;-63
2023/03/30 10:35:43;;;;;;;6.40;3.67;;;;;;;3.89;68.81;100593.42;1650709;86;21916;-64
2023/03/30 10:38:52;;;;;;;4.65;3.05;;;;;;;3.98;68.84;100591.80;1644622;85;21787;-60
2023/03/30 10:42:00;;;;;;;5.70;3.42;;;;;;;4.01;68.75;100598.31;1673308;84;21172;-58
2023/03/30 10:45:09;;;;;;;5.83;3.92;;;;;;;4.09;68.80;100597.17;1642833;84;21299;-59
2023/03/30 10:48:32;;;;;;;6.53;3.15;;;;;;;4.14;68.70;100584.94;1679701;85;21523;-61
2023/03/30 10:52:00;;;;;;;4.53;3.37;;;;;;;4.16;68.58;100606.00;1690476;84;21267;-60
2023/03/30 10:55:13;;;;;;;13.80;3.45;;;;;;;4.09;68.41;100591.23;1647321;86;21244;-55
2023/03/30 10:58:41;;;;;;;3.62;3.02;;;;;;;4.01;68.34;100583.41;1690218;84;21308;-55
2023/03/30 11:02:05;;;;;;;5.33;3.33;;;;;;;3.96;68.36;100581.10;1691412;83;21231;-54
2023/03/30 11:05:17;;;;;;;5.20;3.83;;;;;;;3.98;68.49;100572.33;1652071;86;21281;-55
2023/03/30 11:08:39;;;;;;;8.48;4.40;;;;;;;4.07;68.60;100573.41;1670544;85;21204;-54
2023/03/30 11:11:48;;;;;;;3.30;2.75;;;;;;;4.10;68.49;100567.25;1690638;83;21215;-55
2023/03/30 11:15:00;;;;;;;3.92;3.00;;;;;;;4.12;68.41;100559.83;1640551;86;21293;-54
2023/03/30 11:18:41;;;;;;;3.87;2.65;;;;;;;4.19;68.40;100561.03;1659024;86;21272;-55
2023/03/30 11:21:55;;;;;;;7.42;4.17;;;;;;;4.24;68.34;100552.02;1690967;83;21584;-54
2023/03/30 11:25:01;;;;;;;7.70;3.42;;;;;;;4.29;68.29;100551.14;1666849;86;21762;-56
2023/03/30 11:28:26;;;;;;;6.00;3.27;;;;;;;4.33;68.22;100552.58;1666420;86;22011;-54
2023/03/30 11:32:00;;;;;;;4.75;3.05;;;;;;;4.36;68.22;100531.98;1658775;86;21303;-55
2023/03/30 11:35:14;;;;;;;4.45;3.22;;;;;;;4.47;68.29;100525.13;1691531;84;21223;-56
2023/03/30 11:38:32;;;;;;;4.95;3.15;;;;;;;4.48;68.20;100525.52;1629804;88;21227;-57
2023/03/30 11:42:01;;;;;;;12.35;7.97;;;;;;;4.52;68.20;100522.88;1681799;83;21653;-54
2023/03/30 11:45:08;;;;;;;6.37;4.10;;;;;;;4.58;68.18;100512.85;1681347;83;21816;-54
2023/03/30 11:48:23;;;;;;;11.45;6.95;;;;;;;4.70;68.21;100505.50;1690076;83;21410;-57
2023/03/30 11:51:59;;;;;;;7.17;4.47;;;;;;;4.75;68.08;100495.59;1698334;83;21207;-56
2023/03/30 11:55:38;;;;;;;7.00;4.25;;;;;;;4.94;68.20;100498.38;1647065;87;21280;-58
2023/03/30 11:59:04;;;;;;;4.70;3.52;;;;;;;5.12;68.08;100489.96;1690312;83;21230;-57
2023/03/30 12:02:25;;;;;;;13.58;5.37;;;;;;;5.16;67.82;100483.24;1667804;84;21385;-55
2023/03/30 12:05:50;;;;;;;8.55;4.78;;;;;;;5.10;67.73;100480.61;1631471;85;21263;-56
2023/03/30 12:12:25;;;;;;;4.05;3.05;;;;;;;5.30;67.76;100471.98;1668597;84;21259;-56
2023/03/30 12:15:39;;;;;;;5.30;3.30;;;;;;;5.27;67.59;100469.55;1669629;86;21215;-56
2023/03/30 12:18:51;;;;;;;6.35;3.60;;;;;;;5.31;67.59;100473.72;1680043;84;21219;-56
2023/03/30 12:22:05;;;;;;;22.77;11.53;;;;;;;5.32;67.59;100473.58;1678270;85;21235;-56
2023/03/30 12:25:30;;;;;;;15.08;6.03;;;;;;;5.36;67.57;100465.50;1690741;85;21724;-55
2023/03/30 12:28:52;;;;;;;8.23;4.87;;;;;;;5.46;67.60;100473.66;1690595;85;21498;-56
2023/03/30 12:32:03;;;;;;;5.22;3.50;;;;;;;5.60;67.53;100463.73;1682022;83;21879;-56
2023/03/30 12:35:11;;;;;;;4.17;2.45;;;;;;;5.63;67.39;100458.02;1691334;84;21199;-56
2023/03/30 12:38:19;;;;;;;3.45;2.50;;;;;;;5.69;67.30;100465.09;1647676;85;21207;-55
2023/03/30 12:41:25;;;;;;;5.45;3.50;;;;;;;5.63;67.13;100461.59;1683678;83;21577;-56
2023/03/30 12:45:14;;;;;;;5.08;2.92;;;;;;;5.62;67.21;100459.03;1689376;83;21224;-55
2023/03/30 12:48:42;;;;;;;3.72;2.80;;;;;;;5.76;67.42;100459.46;1660104;82;21215;-55
2023/03/30 12:51:56;;;;;;;2.55;2.22;;;;;;;5.80;67.14;100451.37;1636530;86;21677;-55
2023/03/30 12:55:30;;;;;;;2.75;2.20;;;;;;;5.79;66.98;100449.66;1693418;84;21219;-56
2023/03/30 12:59:20;;;;;;;5.08;2.95;;;;;;;5.71;66.89;100441.38;1688443;85;21832;-55
2023/03/30 13:02:51;;;;;;;4.90;2.83;;;;;;;5.63;66.82;100451.23;1684728;83;21235;-56
2023/03/30 13:05:59;;;;;;;3.15;2.22;;;;;;;5.70;66.91;100445.59;1601791;88;21320;-56
2023/03/30 13:09:22;;;;;;;3.45;2.10;;;;;;;5.73;66.89;100454.81;1612768;87;21232;-56
2023/03/30 13:12:40;;;;;;;2.22;1.67;;;;;;;5.64;66.74;100448.89;1627898;86;21263;-56
2023/03/30 13:16:00;;;;;;;4.42;2.35;;;;;;;5.54;66.64;100448.02;1627886;86;22118;-56
2023/03/30 13:19:07;;;;;;;3.33;2.45;;;;;;;5.59;66.89;100430.80;1646421;86;21779;-57
2023/03/30 13:22:23;;;;;;;8.48;3.50;;;;;;;5.69;66.93;100444.73;1637526;86;22023;-58
2023/03/30 13:25:45;;;;;;;4.42;2.83;;;;;;;5.64;66.76;100428.03;1650378;85;21825;-56
2023/03/30 13:29:01;;;;;;;6.78;3.58;;;;;;;5.73;66.85;100420.86;1690326;83;21184;-56
2023/03/30 13:32:40;;;;;;;4.85;2.60;;;;;;;5.85;66.95;100439.61;1641880;85;21260;-58
2023/03/30 13:36:14;;;;;;;5.17;2.75;;;;;;;5.90;66.88;100420.16;1684802;85;21577;-58
2023/03/30 13:39:33;;;;;;;3.87;2.98;;;;;;;5.91;66.83;100428.16;1683301;83;21252;-58
2023/03/30 13:42:56;;;;;;;6.05;2.80;;;;;;;5.91;66.73;100417.29;1636184;87;21856;-57
2023/03/30 13:46:18;;;;;;;4.05;2.65;;;;;;;5.89;66.65;100425.24;1662317;86;21801;-58
2023/03/30 13:49:46;;;;;;;4.60;3.00;;;;;;;5.86;66.63;100414.67;1679233;83;21775;-58
2023/03/30 13:52:53;;;;;;;3.10;2.30;;;;;;;6.02;66.83;100411.69;1676050;84;21218;-58
2023/03/30 13:55:59;;;;;;;3.40;2.45;;;;;;;6.11;66.69;100405.89;1659565;85;21317;-58
2023/03/30 13:59:28;;;;;;;7.85;5.65;;;;;;;6.16;66.61;100400.88;1651153;85;21752;-58
2023/03/30 14:02:29;;;;;;;;;;;;;;;6.17;66.45;100391.70;1630599;86;21559;-57
2023/03/30 14:05:34;;;;;;;3.60;2.77;;;;;;;6.16;66.37;100406.31;1677740;84;20251;-57
2023/03/30 14:08:43;;;;;;;5.25;2.70;;;;;;;6.08;66.34;100406.19;1679581;85;21217;-58
2023/03/30 14:11:56;;;;;;;4.35;2.42;;;;;;;6.12;66.45;100402.68;1685984;83;21323;-58
2023/03/30 14:15:04;;;;;;;7.92;3.83;;;;;;;6.12;66.29;100395.89;1638525;87;21340;-58
2023/03/30 14:18:10;;;;;;;3.95;2.72;;;;;;;6.29;66.53;100394.62;1633317;87;21563;-58
2023/03/30 14:21:26;;;;;;;3.33;2.47;;;;;;;6.38;66.41;100392.84;1617503;87;21831;-58
2023/03/30 14:24:37;;;;;;;6.55;3.72;;;;;;;6.46;66.37;100384.81;1629112;87;21816;-57
2023/03/30 14:27:44;;;;;;;5.60;3.42;;;;;;;6.55;66.33;100387.48;1633008;87;21278;-56
2023/03/30 14:31:06;;;;;;;4.47;2.70;;;;;;;6.58;66.19;100395.34;1633892;86;21240;-57
2023/03/30 14:34:37;;;;;;;5.62;2.83;;;;;;;6.56;66.01;100386.98;1652794;85;21227;-56
2023/03/30 14:37:46;;;;;;;8.30;4.70;;;;;;;6.74;66.02;100381.11;1630873;86;21264;-57
2023/03/30 14:40:54;;;;;;;5.47;3.17;;;;;;;6.88;65.86;100382.80;1653899;85;21247;-57
2023/03/30 14:44:10;;;;;;;4.33;2.77;;;;;;;6.97;65.80;100373.73;1629829;88;21255;-57
2023/03/30 14:47:17;;;;;;;7.65;3.37;;;;;;;6.96;65.75;100373.36;1653166;85;21850;-57
2023/03/30 14:50:23;;;;;;;4.35;2.72;;;;;;;6.94;65.70;100379.48;1638246;83;21859;-57
2023/03/30 14:53:34;;;;;;;6.25;4.22;;;;;;;6.90;65.60;100379.42;1639709;87;22202;-57
2023/03/30 14:56:40;;;;;;;6.50;4.40;;;;;;;6.85;65.57;100372.74;1655130;85;21833;-56
2023/03/30 14:59:57;;;;;;;5.72;3.33;;;;;;;6.81;65.60;100365.38;1655222;86;21268;-57
2023/03/30 15:03:06;;;;;;;5.08;2.92;;;;;;;6.88;65.69;100359.66;1634334;87;21893;-57
2023/03/30 15:06:14;;;;;;;8.65;5.83;;;;;;;7.17;65.75;100356.25;1664592;86;21232;-59
2023/03/30 15:09:28;;;;;;;5.50;3.50;;;;;;;7.98;65.50;100356.92;1611014;86;21216;-56
2023/03/30 15:12:42;;;;;;;4.00;2.20;;;;;;;8.77;64.91;100363.86;1638863;87;21220;-56
2023/03/30 15:15:47;;;;;;;3.80;2.20;;;;;;;9.09;63.82;100362.61;1663099;85;21275;-56